sensor_id;sensor_type;location;lat;lon;timestamp;pressure;altitude;pressure_sealevel;temperature;humidity
48796;BME280;34607;48.520;-1.330;2023-12-22T07:48:43;100692.66;;;9.79;100.00
48796;BME280;34607;48.520;-1.330;2023-12-22T07:51:10;100698.97;;;9.90;100.00
48796;BME280;34607;48.520;-1.330;2023-12-22T07:53:38;100699.59;;;9.80;100.00
48796;BME280;34607;48.520;-1.330;2023-12-22T07:56:06;100675.22;;;9.72;100.00
48796;BME280;34607;48.520;-1.330;2023-12-22T07:58:33;100701.56;;;9.92;100.00
48796;BME280;34607;48.520;-1.330;2023-12-22T08:01:00;100707.00;;;10.01;100.00
48796;BME280;34607;48.520;-1.330;2023-12-22T08:03:27;100713.75;;;9.96;100.00
48796;BME280;34607;48.520;-1.330;2023-12-22T08:05:56;100709.50;;;9.98;100.00
48796;BME280;34607;48.520;-1.330;2023-12-22T08:08:23;100711.94;;;9.93;100.00
48796;BME280;34607;48.520;-1.330;2023-12-22T08:10:50;100711.75;;;9.84;100.00
48796;BME280;34607;48.520;-1.330;2023-12-22T08:13:17;100708.31;;;9.85;100.00
48796;BME280;34607;48.520;-1.330;2023-12-22T08:15:44;100714.59;;;9.95;100.00
48796;BME280;34607;48.520;-1.330;2023-12-22T08:18:12;100711.81;;;9.87;100.00
48796;BME280;34607;48.520;-1.330;2023-12-22T08:20:39;100711.69;;;9.83;100.00
48796;BME280;34607;48.520;-1.330;2023-12-22T08:23:07;100713.59;;;9.90;100.00
48796;BME280;34607;48.520;-1.330;2023-12-22T08:25:34;100724.25;;;9.67;100.00
48796;BME280;34607;48.520;-1.330;2023-12-22T08:28:01;100721.81;;;9.73;100.00
48796;BME280;34607;48.520;-1.330;2023-12-22T08:30:28;100740.63;;;9.68;100.00
48796;BME280;34607;48.520;-1.330;2023-12-22T08:32:55;100747.47;;;9.66;100.00
48796;BME280;34607;48.520;-1.330;2023-12-22T08:35:22;100743.06;;;9.62;100.00
48796;BME280;34607;48.520;-1.330;2023-12-22T08:37:50;100744.16;;;9.70;100.00
48796;BME280;34607;48.520;-1.330;2023-12-22T08:40:18;100741.75;;;9.78;100.00
48796;BME280;34607;48.520;-1.330;2023-12-22T08:42:51;100745.91;;;9.72;100.00
48796;BME280;34607;48.520;-1.330;2023-12-22T08:45:20;100745.88;;;9.71;100.00
48796;BME280;34607;48.520;-1.330;2023-12-22T08:47:47;100745.97;;;9.74;100.00
48796;BME280;34607;48.520;-1.330;2023-12-22T08:50:15;100761.31;;;9.68;100.00
48796;BME280;34607;48.520;-1.330;2023-12-22T08:52:42;100753.28;;;9.57;100.00
48796;BME280;34607;48.520;-1.330;2023-12-22T08:55:09;100756.22;;;9.71;100.00
48796;BME280;34607;48.520;-1.330;2023-12-22T08:57:39;100761.44;;;9.72;100.00
48796;BME280;34607;48.520;-1.330;2023-12-22T09:00:07;100768.31;;;9.72;100.00
48796;BME280;34607;48.520;-1.330;2023-12-22T09:02:34;100754.13;;;9.57;100.00
48796;BME280;34607;48.520;-1.330;2023-12-22T09:05:02;100760.97;;;9.55;100.00
48796;BME280;34607;48.520;-1.330;2023-12-22T09:07:29;100761.06;;;9.59;100.00
48796;BME280;34607;48.520;-1.330;2023-12-22T09:09:56;100751.91;;;9.70;100.00
48796;BME280;34607;48.520;-1.330;2023-12-22T09:12:23;100758.75;;;9.69;100.00
48796;BME280;34607;48.520;-1.330;2023-12-22T09:14:51;100757.31;;;9.79;100.00
48796;BME280;34607;48.520;-1.330;2023-12-22T09:17:18;100765.06;;;9.79;100.00
48796;BME280;34607;48.520;-1.330;2023-12-22T09:19:45;100761.66;;;9.80;100.00
48796;BME280;34607;48.520;-1.330;2023-12-22T09:22:12;100753.13;;;9.84;100.00
48796;BME280;34607;48.520;-1.330;2023-12-22T09:24:40;100748.16;;;9.93;100.00
48796;BME280;34607;48.520;-1.330;2023-12-22T09:27:07;100749.13;;;9.96;100.00
48796;BME280;34607;48.520;-1.330;2023-12-22T09:29:35;100745.53;;;9.90;100.00
48796;BME280;34607;48.520;-1.330;2023-12-22T09:32:04;100745.72;;;9.98;100.00
48796;BME280;34607;48.520;-1.330;2023-12-22T09:34:32;100739.59;;;9.94;100.00
48796;BME280;34607;48.520;-1.330;2023-12-22T09:36:59;100746.63;;;10.00;100.00
48796;BME280;34607;48.520;-1.330;2023-12-22T09:39:26;100750.22;;;10.07;100.00
48796;BME280;34607;48.520;-1.330;2023-12-22T09:41:54;100751.91;;;10.05;100.00
48796;BME280;34607;48.520;-1.330;2023-12-22T09:44:22;100755.41;;;10.07;100.00
48796;BME280;34607;48.520;-1.330;2023-12-22T09:46:50;100754.63;;;10.09;100.00
48796;BME280;34607;48.520;-1.330;2023-12-22T09:49:19;100767.34;;;10.02;100.00
48796;BME280;34607;48.520;-1.330;2023-12-22T09:51:49;100767.28;;;9.99;100.00
48796;BME280;34607;48.520;-1.330;2023-12-22T09:54:17;100768.00;;;9.93;100.00
48796;BME280;34607;48.520;-1.330;2023-12-22T09:56:46;100775.72;;;9.91;100.00
48796;BME280;34607;48.520;-1.330;2023-12-22T09:59:14;100763.25;;;9.75;100.00
48796;BME280;34607;48.520;-1.330;2023-12-22T10:01:44;100769.13;;;10.03;100.00
48796;BME280;34607;48.520;-1.330;2023-12-22T10:04:11;100788.25;;;10.09;100.00
48796;BME280;34607;48.520;-1.330;2023-12-22T10:06:40;100787.88;;;9.94;100.00
48796;BME280;34607;48.520;-1.330;2023-12-22T10:09:08;100794.09;;;10.01;100.00
48796;BME280;34607;48.520;-1.330;2023-12-22T10:11:37;100794.13;;;10.04;100.00
48796;BME280;34607;48.520;-1.330;2023-12-22T10:14:05;100788.97;;;10.04;100.00
48796;BME280;34607;48.520;-1.330;2023-12-22T10:16:33;100793.00;;;9.92;100.00
48796;BME280;34607;48.520;-1.330;2023-12-22T10:19:01;100791.25;;;9.91;100.00
48796;BME280;34607;48.520;-1.330;2023-12-22T10:21:28;100791.16;;;9.88;100.00
48796;BME280;34607;48.520;-1.330;2023-12-22T10:23:57;100797.28;;;9.92;100.00
48796;BME280;34607;48.520;-1.330;2023-12-22T10:26:25;100805.25;;;10.00;100.00
48796;BME280;34607;48.520;-1.330;2023-12-22T10:28:52;100802.91;;;10.09;100.00
48796;BME280;34607;48.520;-1.330;2023-12-22T10:31:19;100789.25;;;10.15;100.00
48796;BME280;34607;48.520;-1.330;2023-12-22T10:33:47;100793.75;;;10.22;100.00
48796;BME280;34607;48.520;-1.330;2023-12-22T10:36:14;100802.31;;;10.21;100.00
48796;BME280;34607;48.520;-1.330;2023-12-22T10:38:41;100801.50;;;10.22;100.00
48796;BME280;34607;48.520;-1.330;2023-12-22T10:41:12;100798.09;;;10.24;100.00
48796;BME280;34607;48.520;-1.330;2023-12-22T10:43:39;100783.19;;;10.14;100.00
48796;BME280;34607;48.520;-1.330;2023-12-22T10:46:07;100774.69;;;10.18;100.00
48796;BME280;34607;48.520;-1.330;2023-12-22T10:48:36;100789.63;;;10.30;100.00
48796;BME280;34607;48.520;-1.330;2023-12-22T10:51:09;100783.69;;;10.33;100.00
48796;BME280;34607;48.520;-1.330;2023-12-22T10:53:40;100795.59;;;10.27;100.00
48796;BME280;34607;48.520;-1.330;2023-12-22T10:56:07;100796.53;;;10.31;100.00
48796;BME280;34607;48.520;-1.330;2023-12-22T10:58:36;100784.53;;;10.32;100.00
48796;BME280;34607;48.520;-1.330;2023-12-22T11:01:06;100773.16;;;10.28;100.00
48796;BME280;34607;48.520;-1.330;2023-12-22T11:03:38;100767.81;;;10.20;100.00
48796;BME280;34607;48.520;-1.330;2023-12-22T11:06:06;100770.41;;;10.20;100.00
48796;BME280;34607;48.520;-1.330;2023-12-22T11:08:38;100795.16;;;10.10;100.00
48796;BME280;34607;48.520;-1.330;2023-12-22T11:11:15;100797.31;;;9.93;100.00
48796;BME280;34607;48.520;-1.330;2023-12-22T11:13:44;100815.22;;;10.19;100.00
48796;BME280;34607;48.520;-1.330;2023-12-22T11:16:12;100821.25;;;10.18;100.00
48796;BME280;34607;48.520;-1.330;2023-12-22T11:18:41;100830.19;;;10.31;100.00
48796;BME280;34607;48.520;-1.330;2023-12-22T11:21:10;100822.19;;;10.55;100.00
48796;BME280;34607;48.520;-1.330;2023-12-22T11:23:38;100810.00;;;10.51;100.00
48796;BME280;34607;48.520;-1.330;2023-12-22T11:26:06;100818.28;;;10.36;100.00
48796;BME280;34607;48.520;-1.330;2023-12-22T11:28:38;100808.22;;;10.48;100.00
48796;BME280;34607;48.520;-1.330;2023-12-22T11:31:10;100804.53;;;10.39;100.00
48796;BME280;34607;48.520;-1.330;2023-12-22T11:33:37;100812.31;;;10.39;100.00
48796;BME280;34607;48.520;-1.330;2023-12-22T11:36:07;100798.47;;;10.38;100.00
48796;BME280;34607;48.520;-1.330;2023-12-22T11:38:34;100791.94;;;10.53;100.00
48796;BME280;34607;48.520;-1.330;2023-12-22T11:41:02;100796.25;;;10.52;100.00
48796;BME280;34607;48.520;-1.330;2023-12-22T11:43:31;100798.06;;;10.56;100.00
48796;BME280;34607;48.520;-1.330;2023-12-22T11:46:01;100789.84;;;10.38;100.00
48796;BME280;34607;48.520;-1.330;2023-12-22T11:48:30;100799.56;;;10.48;100.00
48796;BME280;34607;48.520;-1.330;2023-12-22T11:50:57;100801.47;;;10.55;100.00
48796;BME280;34607;48.520;-1.330;2023-12-22T11:53:25;100804.13;;;10.58;100.00
48796;BME280;34607;48.520;-1.330;2023-12-22T11:55:59;100791.31;;;10.63;100.00
48796;BME280;34607;48.520;-1.330;2023-12-22T11:58:33;100793.81;;;10.60;100.00
48796;BME280;34607;48.520;-1.330;2023-12-22T12:01:01;100793.66;;;10.54;100.00
48796;BME280;34607;48.520;-1.330;2023-12-22T12:03:31;100782.34;;;10.50;100.00
48796;BME280;34607;48.520;-1.330;2023-12-22T12:06:25;100777.06;;;10.44;100.00
48796;BME280;34607;48.520;-1.330;2023-12-22T12:08:57;100765.47;;;10.31;100.00
48796;BME280;34607;48.520;-1.330;2023-12-22T12:14:29;100767.22;;;10.30;100.00
48796;BME280;34607;48.520;-1.330;2023-12-22T12:17:03;100778.28;;;10.25;100.00
48796;BME280;34607;48.520;-1.330;2023-12-22T12:19:34;100742.56;;;10.10;100.00
48796;BME280;34607;48.520;-1.330;2023-12-22T12:22:03;100778.66;;;10.39;100.00
48796;BME280;34607;48.520;-1.330;2023-12-22T12:24:30;100781.13;;;10.34;100.00
48796;BME280;34607;48.520;-1.330;2023-12-22T12:26:58;100785.31;;;10.30;100.00
48796;BME280;34607;48.520;-1.330;2023-12-22T12:29:25;100798.09;;;10.24;100.00
48796;BME280;34607;48.520;-1.330;2023-12-22T12:32:02;100793.09;;;10.30;100.00
48796;BME280;34607;48.520;-1.330;2023-12-22T12:34:29;100799.91;;;10.27;100.00
48796;BME280;34607;48.520;-1.330;2023-12-22T12:36:58;100789.75;;;10.35;100.00
48796;BME280;34607;48.520;-1.330;2023-12-22T12:39:29;100792.28;;;10.32;100.00
48796;BME280;34607;48.520;-1.330;2023-12-22T12:41:59;100793.66;;;10.52;100.00
48796;BME280;34607;48.520;-1.330;2023-12-22T12:44:29;100786.84;;;10.57;100.00
48796;BME280;34607;48.520;-1.330;2023-12-22T12:46:58;100777.47;;;10.62;100.00
48796;BME280;34607;48.520;-1.330;2023-12-22T12:49:25;100779.97;;;10.58;100.00
48796;BME280;34607;48.520;-1.330;2023-12-22T12:51:55;100777.13;;;10.47;100.00
48796;BME280;34607;48.520;-1.330;2023-12-22T12:54:23;100776.31;;;10.49;100.00
48796;BME280;34607;48.520;-1.330;2023-12-22T12:56:50;100775.38;;;10.46;100.00
48796;BME280;34607;48.520;-1.330;2023-12-22T12:59:18;100770.63;;;10.64;100.00
48796;BME280;34607;48.520;-1.330;2023-12-22T13:01:46;100763.47;;;10.54;100.00
48796;BME280;34607;48.520;-1.330;2023-12-22T13:04:14;100758.38;;;10.59;100.00
48796;BME280;34607;48.520;-1.330;2023-12-22T13:06:44;100757.75;;;10.69;100.00
48796;BME280;34607;48.520;-1.330;2023-12-22T13:09:12;100760.31;;;10.67;100.00
48796;BME280;34607;48.520;-1.330;2023-12-22T13:11:42;100742.84;;;10.59;100.00
48796;BME280;34607;48.520;-1.330;2023-12-22T13:14:09;100759.63;;;10.75;100.00
48796;BME280;34607;48.520;-1.330;2023-12-22T13:16:37;100759.78;;;10.82;100.00
48796;BME280;34607;48.520;-1.330;2023-12-22T13:19:05;100758.66;;;10.70;100.00
48796;BME280;34607;48.520;-1.330;2023-12-22T13:21:32;100762.97;;;10.71;100.00
48796;BME280;34607;48.520;-1.330;2023-12-22T13:24:09;100735.00;;;10.54;100.00
48796;BME280;34607;48.520;-1.330;2023-12-22T13:26:35;100755.09;;;10.64;100.00
48796;BME280;34607;48.520;-1.330;2023-12-22T13:29:03;100752.72;;;10.75;100.00
48796;BME280;34607;48.520;-1.330;2023-12-22T13:31:31;100763.06;;;10.74;100.00
48796;BME280;34607;48.520;-1.330;2023-12-22T13:33:59;100760.16;;;10.60;100.00
48796;BME280;34607;48.520;-1.330;2023-12-22T13:36:26;100756.69;;;10.59;100.00
48796;BME280;34607;48.520;-1.330;2023-12-22T13:38:54;100757.72;;;10.67;100.00
48796;BME280;34607;48.520;-1.330;2023-12-22T13:41:21;100752.78;;;10.78;100.00
48796;BME280;34607;48.520;-1.330;2023-12-22T13:43:48;100758.09;;;10.84;100.00
48796;BME280;34607;48.520;-1.330;2023-12-22T13:46:16;100759.66;;;10.78;100.00
48796;BME280;34607;48.520;-1.330;2023-12-22T13:48:44;100766.41;;;10.70;100.00
48796;BME280;34607;48.520;-1.330;2023-12-22T13:51:11;100762.88;;;10.66;100.00
48796;BME280;34607;48.520;-1.330;2023-12-22T13:53:47;100774.88;;;10.62;100.00
48796;BME280;34607;48.520;-1.330;2023-12-22T13:56:14;100763.84;;;10.70;100.00
48796;BME280;34607;48.520;-1.330;2023-12-22T13:58:45;100768.34;;;10.40;100.00
48796;BME280;34607;48.520;-1.330;2023-12-22T14:01:13;100746.94;;;10.47;100.00
48796;BME280;34607;48.520;-1.330;2023-12-22T14:03:43;100748.66;;;10.47;100.00
48796;BME280;34607;48.520;-1.330;2023-12-22T14:06:11;100730.97;;;10.30;100.00
48796;BME280;34607;48.520;-1.330;2023-12-22T14:08:39;100752.03;;;10.44;100.00
48796;BME280;34607;48.520;-1.330;2023-12-22T14:11:07;100765.78;;;10.42;100.00
48796;BME280;34607;48.520;-1.330;2023-12-22T14:13:34;100759.88;;;10.47;100.00
48796;BME280;34607;48.520;-1.330;2023-12-22T14:16:05;100744.94;;;10.36;100.00
48796;BME280;34607;48.520;-1.330;2023-12-22T14:18:33;100750.25;;;10.43;100.00
48796;BME280;34607;48.520;-1.330;2023-12-22T14:21:01;100755.31;;;10.37;100.00
48796;BME280;34607;48.520;-1.330;2023-12-22T14:23:30;100760.41;;;10.34;100.00
48796;BME280;34607;48.520;-1.330;2023-12-22T14:25:58;100717.66;;;10.15;100.00
48796;BME280;34607;48.520;-1.330;2023-12-22T14:28:25;100742.38;;;10.37;100.00
48796;BME280;34607;48.520;-1.330;2023-12-22T14:30:53;100749.91;;;10.29;100.00
48796;BME280;34607;48.520;-1.330;2023-12-22T14:33:20;100740.47;;;10.30;100.00
48796;BME280;34607;48.520;-1.330;2023-12-22T14:35:47;100732.06;;;10.39;100.00
48796;BME280;34607;48.520;-1.330;2023-12-22T14:38:15;100721.88;;;10.46;100.00
48796;BME280;34607;48.520;-1.330;2023-12-22T14:40:42;100731.41;;;10.47;100.00
48796;BME280;34607;48.520;-1.330;2023-12-22T14:43:09;100729.88;;;10.57;100.00
48796;BME280;34607;48.520;-1.330;2023-12-22T14:45:36;100734.13;;;10.55;100.00
48796;BME280;34607;48.520;-1.330;2023-12-22T14:48:05;100737.34;;;10.45;100.00
48796;BME280;34607;48.520;-1.330;2023-12-22T14:50:35;100742.81;;;10.56;100.00
48796;BME280;34607;48.520;-1.330;2023-12-22T14:53:02;100734.13;;;10.55;100.00
48796;BME280;34607;48.520;-1.330;2023-12-22T14:55:31;100736.69;;;10.54;100.00
48796;BME280;34607;48.520;-1.330;2023-12-22T14:57:58;100735.91;;;10.56;100.00
48796;BME280;34607;48.520;-1.330;2023-12-22T15:00:25;100740.88;;;10.47;100.00
48796;BME280;34607;48.520;-1.330;2023-12-22T15:02:52;100737.34;;;10.45;100.00
48796;BME280;34607;48.520;-1.330;2023-12-22T15:05:19;100728.84;;;10.49;100.00
48796;BME280;34607;48.520;-1.330;2023-12-22T15:07:47;100741.94;;;10.57;100.00
48796;BME280;34607;48.520;-1.330;2023-12-22T15:10:14;100741.13;;;10.58;100.00
48796;BME280;34607;48.520;-1.330;2023-12-22T15:12:42;100747.16;;;10.58;100.00
48796;BME280;34607;48.520;-1.330;2023-12-22T15:15:10;100764.84;;;10.40;100.00
48796;BME280;34607;48.520;-1.330;2023-12-22T15:17:37;100760.66;;;10.45;100.00
48796;BME280;34607;48.520;-1.330;2023-12-22T15:20:04;100757.16;;;10.43;100.00
48796;BME280;34607;48.520;-1.330;2023-12-22T15:22:34;100761.44;;;10.41;100.00
48796;BME280;34607;48.520;-1.330;2023-12-22T15:25:01;100758.94;;;10.44;100.00
48796;BME280;34607;48.520;-1.330;2023-12-22T15:27:29;100762.31;;;10.41;100.00
48796;BME280;34607;48.520;-1.330;2023-12-22T15:29:57;100764.09;;;10.44;100.00
48796;BME280;34607;48.520;-1.330;2023-12-22T15:32:24;100765.78;;;10.42;100.00
48796;BME280;34607;48.520;-1.330;2023-12-22T15:34:51;100757.06;;;10.38;100.00
48796;BME280;34607;48.520;-1.330;2023-12-22T15:37:18;100757.91;;;10.37;100.00
48796;BME280;34607;48.520;-1.330;2023-12-22T15:39:45;100770.97;;;10.43;100.00
48796;BME280;34607;48.520;-1.330;2023-12-22T15:42:12;100768.38;;;10.42;100.00
48796;BME280;34607;48.520;-1.330;2023-12-22T15:44:39;100742.72;;;10.18;100.00
48796;BME280;34607;48.520;-1.330;2023-12-22T15:47:08;100766.47;;;10.35;100.00
48796;BME280;34607;48.520;-1.330;2023-12-22T15:49:37;100767.47;;;10.41;100.00
48796;BME280;34607;48.520;-1.330;2023-12-22T15:52:05;100772.56;;;10.37;100.00
48796;BME280;34607;48.520;-1.330;2023-12-22T15:54:33;100765.72;;;10.39;100.00
48796;BME280;34607;48.520;-1.330;2023-12-22T15:57:02;100764.84;;;10.40;100.00
48796;BME280;34607;48.520;-1.330;2023-12-22T15:59:29;100757.03;;;10.37;100.00
48796;BME280;34607;48.520;-1.330;2023-12-22T16:01:56;100768.94;;;10.30;100.00
48796;BME280;34607;48.520;-1.330;2023-12-22T16:04:25;100770.50;;;10.23;100.00
48796;BME280;34607;48.520;-1.330;2023-12-22T16:06:52;100757.34;;;10.16;100.00
48796;BME280;34607;48.520;-1.330;2023-12-22T16:09:19;100770.25;;;10.14;100.00
48796;BME280;34607;48.520;-1.330;2023-12-22T16:11:46;100762.53;;;10.16;100.00
48796;BME280;34607;48.520;-1.330;2023-12-22T16:14:13;100758.28;;;10.19;100.00
48796;BME280;34607;48.520;-1.330;2023-12-22T16:16:40;100755.50;;;10.10;100.00
48796;BME280;34607;48.520;-1.330;2023-12-22T16:19:07;100736.34;;;10.03;100.00
48796;BME280;34607;48.520;-1.330;2023-12-22T16:21:41;100748.13;;;9.90;100.00
48796;BME280;34607;48.520;-1.330;2023-12-22T16:24:09;100755.88;;;9.90;100.00
48796;BME280;34607;48.520;-1.330;2023-12-22T16:26:36;100770.53;;;9.91;100.00
48796;BME280;34607;48.520;-1.330;2023-12-22T16:29:03;100754.13;;;9.89;100.00
48796;BME280;34607;48.520;-1.330;2023-12-22T16:31:30;100766.22;;;9.90;100.00
48796;BME280;34607;48.520;-1.330;2023-12-22T16:33:57;100755.53;;;9.78;100.00
48796;BME280;34607;48.520;-1.330;2023-12-22T16:36:24;100756.66;;;9.88;100.00
48796;BME280;34607;48.520;-1.330;2023-12-22T16:38:53;100750.72;;;9.92;100.00
48796;BME280;34607;48.520;-1.330;2023-12-22T16:41:20;100760.94;;;9.86;100.00
48796;BME280;34607;48.520;-1.330;2023-12-22T16:43:47;100770.41;;;9.85;100.00
48796;BME280;34607;48.520;-1.330;2023-12-22T16:46:17;100761.69;;;9.83;100.00
48796;BME280;34607;48.520;-1.330;2023-12-22T16:48:44;100766.97;;;9.86;100.00
48796;BME280;34607;48.520;-1.330;2023-12-22T16:51:13;100756.69;;;9.89;100.00
48796;BME280;34607;48.520;-1.330;2023-12-22T16:53:41;100761.06;;;9.90;100.00
48796;BME280;34607;48.520;-1.330;2023-12-22T16:56:09;100748.25;;;9.97;100.00
48796;BME280;34607;48.520;-1.330;2023-12-22T16:58:36;100760.28;;;9.94;100.00
48796;BME280;34607;48.520;-1.330;2023-12-22T17:01:03;100758.38;;;9.87;100.00
48796;BME280;34607;48.520;-1.330;2023-12-22T17:03:30;100763.69;;;9.93;100.00
48796;BME280;34607;48.520;-1.330;2023-12-22T17:06:00;100781.06;;;9.98;100.00
48796;BME280;34607;48.520;-1.330;2023-12-22T17:08:28;100767.34;;;10.02;100.00
48796;BME280;34607;48.520;-1.330;2023-12-22T17:10:55;100771.88;;;10.10;100.00
48796;BME280;34607;48.520;-1.330;2023-12-22T17:13:23;100765.16;;;10.17;100.00
48796;BME280;34607;48.520;-1.330;2023-12-22T17:15:50;100772.81;;;10.14;100.00
48796;BME280;34607;48.520;-1.330;2023-12-22T17:18:17;100772.75;;;10.09;100.00
48796;BME280;34607;48.520;-1.330;2023-12-22T17:20:44;100770.19;;;10.11;100.00
48796;BME280;34607;48.520;-1.330;2023-12-22T17:23:11;100770.06;;;10.06;100.00
48796;BME280;34607;48.520;-1.330;2023-12-22T17:25:38;100769.16;;;10.04;100.00
48796;BME280;34607;48.520;-1.330;2023-12-22T17:28:05;100777.69;;;10.02;100.00
48796;BME280;34607;48.520;-1.330;2023-12-22T17:30:34;100746.03;;;9.77;100.00
48796;BME280;34607;48.520;-1.330;2023-12-22T17:33:02;100781.75;;;9.92;100.00
48796;BME280;34607;48.520;-1.330;2023-12-22T17:35:29;100784.16;;;9.84;100.00
48796;BME280;34607;48.520;-1.330;2023-12-22T17:37:56;100787.44;;;9.77;100.00
48796;BME280;34607;48.520;-1.330;2023-12-22T17:40:23;100794.19;;;9.72;100.00
48796;BME280;34607;48.520;-1.330;2023-12-22T17:42:50;100807.06;;;9.70;100.00
48796;BME280;34607;48.520;-1.330;2023-12-22T17:45:18;100788.69;;;9.60;100.00
48796;BME280;34607;48.520;-1.330;2023-12-22T17:47:46;100798.75;;;9.50;100.00
48796;BME280;34607;48.520;-1.330;2023-12-22T17:50:13;100805.56;;;9.47;100.00
48796;BME280;34607;48.520;-1.330;2023-12-22T17:52:40;100793.38;;;9.43;100.00
48796;BME280;34607;48.520;-1.330;2023-12-22T17:55:08;100787.63;;;9.53;100.00
48796;BME280;34607;48.520;-1.330;2023-12-22T17:57:35;100796.31;;;9.55;100.00
48796;BME280;34607;48.520;-1.330;2023-12-22T18:00:02;100790.41;;;9.61;100.00
48796;BME280;34607;48.520;-1.330;2023-12-22T18:02:33;100798.22;;;9.62;100.00
48796;BME280;34607;48.520;-1.330;2023-12-22T18:05:01;100800.13;;;9.69;100.00
48796;BME280;34607;48.520;-1.330;2023-12-22T18:07:28;100796.72;;;9.70;100.00
48796;BME280;34607;48.520;-1.330;2023-12-22T18:09:55;100803.00;;;9.79;100.00
48796;BME280;34607;48.520;-1.330;2023-12-22T18:12:22;100803.09;;;9.83;100.00
48796;BME280;34607;48.520;-1.330;2023-12-22T18:14:49;100806.44;;;9.79;100.00
48796;BME280;34607;48.520;-1.330;2023-12-22T18:17:16;100810.66;;;9.75;100.00
48796;BME280;34607;48.520;-1.330;2023-12-22T18:19:44;100813.28;;;9.77;100.00
48796;BME280;34607;48.520;-1.330;2023-12-22T18:22:12;100824.38;;;9.73;100.00
48796;BME280;34607;48.520;-1.330;2023-12-22T18:24:39;100826.19;;;9.75;100.00
48796;BME280;34607;48.520;-1.330;2023-12-22T18:27:06;100828.84;;;9.79;100.00
48796;BME280;34607;48.520;-1.330;2023-12-22T18:29:34;100826.94;;;9.73;100.00
48796;BME280;34607;48.520;-1.330;2023-12-22T18:32:01;100835.72;;;9.78;100.00
48796;BME280;34607;48.520;-1.330;2023-12-22T18:34:28;100848.78;;;9.83;100.00
48796;BME280;34607;48.520;-1.330;2023-12-22T18:36:55;100847.97;;;9.84;100.00
48796;BME280;34607;48.520;-1.330;2023-12-22T18:39:23;100856.66;;;9.87;100.00
48796;BME280;34607;48.520;-1.330;2023-12-22T18:41:50;100859.13;;;9.83;100.00
48796;BME280;34607;48.520;-1.330;2023-12-22T18:44:17;100860.03;;;9.85;100.00
48796;BME280;34607;48.520;-1.330;2023-12-22T18:46:44;100867.78;;;9.85;100.00
48796;BME280;34607;48.520;-1.330;2023-12-22T18:49:12;100861.41;;;9.72;100.00
48796;BME280;34607;48.520;-1.330;2023-12-22T18:51:41;100864.81;;;9.71;100.00
48796;BME280;34607;48.520;-1.330;2023-12-22T18:54:08;100857.06;;;9.71;100.00
48796;BME280;34607;48.520;-1.330;2023-12-22T18:56:36;100856.97;;;9.68;100.00
48796;BME280;34607;48.520;-1.330;2023-12-22T18:59:04;100851.81;;;9.68;100.00
48796;BME280;34607;48.520;-1.330;2023-12-22T19:01:31;100863.06;;;9.68;100.00
48796;BME280;34607;48.520;-1.330;2023-12-22T19:03:58;100866.16;;;9.56;100.00
48796;BME280;34607;48.520;-1.330;2023-12-22T19:06:25;100868.66;;;9.53;100.00
48796;BME280;34607;48.520;-1.330;2023-12-22T19:08:52;100874.63;;;9.52;100.00
48796;BME280;34607;48.520;-1.330;2023-12-22T19:11:19;100875.59;;;9.54;100.00
48796;BME280;34607;48.520;-1.330;2023-12-22T19:13:48;100868.56;;;9.50;100.00
48796;BME280;34607;48.520;-1.330;2023-12-22T19:16:15;100881.72;;;9.58;100.00
48796;BME280;34607;48.520;-1.330;2023-12-22T19:18:42;100876.41;;;9.53;100.00
48796;BME280;34607;48.520;-1.330;2023-12-22T19:21:12;100877.31;;;9.55;100.00
48796;BME280;34607;48.520;-1.330;2023-12-22T19:23:40;100880.91;;;9.61;100.00
48796;BME280;34607;48.520;-1.330;2023-12-22T19:26:08;100888.06;;;9.69;100.00
48796;BME280;34607;48.520;-1.330;2023-12-22T19:28:35;100882.84;;;9.68;100.00
48796;BME280;34607;48.520;-1.330;2023-12-22T19:31:03;100889.81;;;9.70;100.00
48796;BME280;34607;48.520;-1.330;2023-12-22T19:33:31;100898.44;;;9.71;100.00
48796;BME280;34607;48.520;-1.330;2023-12-22T19:35:58;100903.66;;;9.72;100.00
48796;BME280;34607;48.520;-1.330;2023-12-22T19:38:25;100897.34;;;9.63;100.00
48796;BME280;34607;48.520;-1.330;2023-12-22T19:40:52;100897.38;;;9.64;100.00
48796;BME280;34607;48.520;-1.330;2023-12-22T19:43:19;100891.25;;;9.61;100.00
48796;BME280;34607;48.520;-1.330;2023-12-22T19:45:46;100896.72;;;9.70;100.00
48796;BME280;34607;48.520;-1.330;2023-12-22T19:48:16;100901.88;;;9.70;100.00
48796;BME280;34607;48.520;-1.330;2023-12-22T19:50:43;100907.13;;;9.73;100.00
48796;BME280;34607;48.520;-1.330;2023-12-22T19:53:11;100904.47;;;9.70;100.00
48796;BME280;34607;48.520;-1.330;2023-12-22T19:55:38;100905.94;;;9.62;100.00
48796;BME280;34607;48.520;-1.330;2023-12-22T19:58:05;100895.50;;;9.59;100.00
48796;BME280;34607;48.520;-1.330;2023-12-22T20:00:32;100898.28;;;9.65;100.00
48796;BME280;34607;48.520;-1.330;2023-12-22T20:02:59;100900.94;;;9.68;100.00
48796;BME280;34607;48.520;-1.330;2023-12-22T20:05:27;100906.19;;;9.71;100.00
48796;BME280;34607;48.520;-1.330;2023-12-22T20:07:55;100904.56;;;9.74;100.00
48796;BME280;34607;48.520;-1.330;2023-12-22T20:10:22;100910.81;;;9.81;100.00
48796;BME280;34607;48.520;-1.330;2023-12-22T20:12:49;100914.25;;;9.80;100.00
48796;BME280;34607;48.520;-1.330;2023-12-22T20:15:16;100917.00;;;9.86;100.00
48796;BME280;34607;48.520;-1.330;2023-12-22T20:17:44;100911.00;;;9.87;100.00
48796;BME280;34607;48.520;-1.330;2023-12-22T20:20:12;100891.56;;;9.71;100.00
48796;BME280;34607;48.520;-1.330;2023-12-22T20:22:40;100915.16;;;9.82;100.00
48796;BME280;34607;48.520;-1.330;2023-12-22T20:25:08;100915.16;;;9.82;100.00
48796;BME280;34607;48.520;-1.330;2023-12-22T20:27:36;100921.28;;;9.86;100.00
48796;BME280;34607;48.520;-1.330;2023-12-22T20:30:04;100917.03;;;9.88;100.00